createdAt,value
2018-02-09T00:01:10.325Z,105.68
2018-02-09T00:03:38.288Z,108.03
2018-02-09T00:06:06.228Z,111.80
2018-02-09T00:08:35.015Z,107.03
2018-02-09T00:11:03.022Z,108.78
2018-02-09T00:13:31.808Z,104.63
2018-02-09T00:16:00.426Z,122.97
2018-02-09T00:18:29.238Z,118.05
2018-02-09T00:20:57.121Z,101.22
2018-02-09T00:23:25.048Z,106.07
2018-02-09T00:25:53.019Z,94.00
2018-02-09T00:28:20.889Z,93.78
2018-02-09T00:30:48.933Z,103.65
2018-02-09T00:33:17.640Z,102.05
2018-02-09T00:35:45.658Z,103.43
2018-02-09T00:38:13.621Z,102.57
2018-02-09T00:40:41.791Z,99.20
2018-02-09T00:43:09.820Z,105.25
2018-02-09T00:45:37.712Z,97.20
2018-02-09T00:48:05.891Z,98.00
2018-02-09T00:50:33.816Z,94.45
2018-02-09T00:53:01.712Z,99.07
2018-02-09T00:55:29.766Z,98.55
2018-02-09T00:57:57.851Z,107.75
2018-02-09T01:00:25.808Z,107.05
2018-02-09T01:02:53.746Z,98.57
2018-02-09T01:05:22.572Z,92.53
2018-02-09T01:07:50.675Z,93.68
2018-02-09T01:10:18.689Z,99.45
2018-02-09T01:12:47.404Z,100.10
2018-02-09T01:15:15.269Z,95.03
2018-02-09T01:17:43.219Z,99.37
2018-02-09T01:20:11.060Z,96.90
2018-02-09T01:22:39.776Z,102.65
2018-02-09T01:25:07.915Z,102.85
2018-02-09T01:27:36.618Z,93.87
2018-02-09T01:30:05.425Z,95.80
2018-02-09T01:32:33.427Z,92.40
2018-02-09T01:35:01.422Z,81.53
2018-02-09T01:37:29.401Z,94.45
2018-02-09T01:39:57.246Z,94.80
2018-02-09T01:42:25.195Z,90.47
2018-02-09T01:44:53.129Z,91.82
2018-02-09T01:47:21.811Z,89.57
2018-02-09T01:49:58.737Z,89.25
2018-02-09T01:52:26.654Z,91.32
2018-02-09T01:54:54.620Z,86.22
2018-02-09T01:57:22.718Z,82.97
2018-02-09T01:59:51.399Z,81.72
2018-02-09T02:02:19.267Z,87.68
2018-02-09T02:04:47.192Z,79.28
2018-02-09T02:07:15.918Z,84.57
2018-02-09T02:09:43.760Z,78.75
2018-02-09T02:12:11.725Z,83.15
2018-02-09T02:14:39.628Z,82.22
2018-02-09T02:17:07.850Z,83.45
2018-02-09T02:19:36.660Z,80.72
2018-02-09T02:22:05.344Z,80.12
2018-02-09T02:24:33.398Z,86.53
2018-02-09T02:27:01.997Z,83.00
2018-02-09T02:29:29.870Z,92.03
2018-02-09T02:31:57.810Z,83.15
2018-02-09T02:34:26.459Z,82.90
2018-02-09T02:36:54.420Z,85.90
2018-02-09T02:39:22.420Z,91.00
2018-02-09T02:41:51.098Z,86.45
2018-02-09T02:44:19.354Z,85.20
2018-02-09T02:46:47.364Z,78.45
2018-02-09T02:49:16.166Z,82.65
2018-02-09T02:51:44.016Z,79.35
2018-02-09T02:54:12.766Z,86.20
2018-02-09T02:56:40.671Z,88.85
2018-02-09T02:59:09.322Z,81.07
2018-02-09T03:01:37.245Z,89.22
2018-02-09T03:04:05.112Z,90.45
2018-02-09T03:06:33.037Z,86.30
2018-02-09T03:09:01.758Z,84.00
2018-02-09T03:11:30.680Z,79.00
2018-02-09T03:13:58.603Z,78.85
2018-02-09T03:16:27.238Z,84.32
2018-02-09T03:18:55.216Z,87.72
2018-02-09T03:21:23.113Z,85.97
2018-02-09T03:23:52.054Z,84.00
2018-02-09T03:26:19.950Z,75.07
2018-02-09T03:28:47.853Z,85.60
2018-02-09T03:31:15.718Z,82.45
2018-02-09T03:33:44.337Z,80.03
2018-02-09T03:36:12.288Z,89.37
2018-02-09T03:38:40.173Z,97.03
2018-02-09T03:41:08.201Z,86.15
2018-02-09T03:43:36.892Z,90.00
2018-02-09T03:46:05.923Z,93.70
2018-02-09T03:48:33.791Z,94.57
2018-02-09T03:51:01.657Z,91.55
2018-02-09T03:53:29.620Z,89.50
2018-02-09T03:55:57.769Z,98.78
2018-02-09T03:58:25.740Z,104.35
2018-02-09T04:00:53.713Z,90.85
2018-02-09T04:03:21.705Z,91.35
2018-02-09T04:05:50.520Z,85.45
2018-02-09T04:08:18.430Z,84.82
2018-02-09T04:10:46.308Z,81.00
2018-02-09T04:13:14.185Z,77.25
2018-02-09T04:15:42.052Z,77.62
2018-02-09T04:18:10.109Z,74.78
2018-02-09T04:20:37.977Z,79.68
2018-02-09T04:23:05.888Z,74.37
2018-02-09T04:25:33.893Z,72.37
2018-02-09T04:28:02.576Z,74.80
2018-02-09T04:30:31.508Z,83.05
2018-02-09T04:33:00.133Z,83.07
2018-02-09T04:35:28.080Z,81.65
2018-02-09T04:37:56.029Z,80.18
2018-02-09T04:40:23.957Z,82.72
2018-02-09T04:42:52.544Z,82.50
2018-02-09T04:45:21.184Z,85.53
2018-02-09T04:47:49.103Z,84.75
2018-02-09T04:50:16.996Z,83.57
2018-02-09T04:52:44.818Z,85.53
2018-02-09T04:55:13.593Z,85.28
2018-02-09T04:57:42.203Z,79.25
2018-02-09T05:00:10.259Z,82.72
2018-02-09T05:02:39.006Z,85.82
2018-02-09T05:05:06.983Z,91.35
2018-02-09T05:07:34.976Z,84.20
2018-02-09T05:10:03.777Z,84.57
2018-02-09T05:12:32.528Z,87.32
2018-02-09T05:15:00.476Z,90.57
2018-02-09T05:17:29.236Z,87.40
2018-02-09T05:19:57.116Z,86.78
2018-02-09T05:22:24.983Z,89.55
2018-02-09T05:24:52.861Z,82.53
2018-02-09T05:27:20.869Z,83.57
2018-02-09T05:29:49.711Z,81.18
2018-02-09T05:32:17.629Z,91.95
2018-02-09T05:34:46.283Z,82.12
2018-02-09T05:37:14.243Z,84.50
2018-02-09T05:39:42.141Z,87.80
2018-02-09T05:42:09.992Z,89.03
2018-02-09T05:44:37.847Z,79.15
2018-02-09T05:47:05.802Z,84.22
2018-02-09T05:49:33.822Z,81.22
2018-02-09T05:52:02.586Z,88.12
2018-02-09T05:54:30.469Z,78.53
2018-02-09T05:56:58.474Z,85.30
2018-02-09T05:59:26.407Z,76.90
2018-02-09T06:01:55.582Z,81.45
2018-02-09T06:04:23.577Z,94.68
2018-02-09T06:06:51.584Z,78.28
2018-02-09T06:09:19.493Z,82.28
2018-02-09T06:11:47.640Z,76.15
2018-02-09T06:14:15.666Z,73.93
2018-02-09T06:16:43.710Z,76.68
2018-02-09T06:19:11.787Z,73.90
2018-02-09T06:21:40.378Z,73.53
2018-02-09T06:24:09.051Z,75.70
2018-02-09T06:26:37.838Z,74.07
2018-02-09T06:29:05.762Z,78.40
2018-02-09T06:31:33.626Z,73.15
2018-02-09T06:34:01.551Z,74.05
2018-02-09T06:36:30.157Z,75.65
2018-02-09T06:38:58.259Z,72.95
2018-02-09T06:41:26.180Z,68.60
2018-02-09T06:43:54.905Z,67.90
2018-02-09T06:46:22.854Z,70.72
2018-02-09T06:48:51.469Z,70.15
2018-02-09T06:51:20.455Z,70.90
2018-02-09T06:53:48.669Z,71.93
2018-02-09T06:56:16.729Z,65.95
2018-02-09T06:58:45.379Z,78.75
2018-02-09T07:01:14.100Z,75.60
2018-02-09T07:03:42.035Z,71.93
2018-02-09T07:06:10.081Z,69.62
2018-02-09T07:08:38.021Z,72.80
2018-02-09T07:11:06.706Z,74.47
2018-02-09T07:13:35.525Z,72.87
2018-02-09T07:16:03.845Z,70.25
2018-02-09T07:18:31.795Z,73.25
2018-02-09T07:21:00.491Z,73.97
2018-02-09T07:23:29.159Z,69.72
2018-02-09T07:25:57.041Z,76.68
2018-02-09T07:28:25.161Z,69.32
2018-02-09T07:30:53.100Z,83.07
2018-02-09T07:33:21.090Z,73.55
2018-02-09T07:35:49.841Z,74.85
2018-02-09T07:38:17.767Z,73.43
2018-02-09T07:40:46.184Z,71.32
2018-02-09T07:43:14.181Z,70.37
2018-02-09T07:45:42.130Z,70.95
2018-02-09T07:48:10.095Z,70.18
2018-02-09T07:50:38.122Z,76.35
2018-02-09T07:53:06.231Z,72.45
2018-02-09T07:55:34.181Z,77.68
2018-02-09T07:58:02.257Z,72.62
2018-02-09T08:00:30.229Z,80.55
2018-02-09T08:02:58.200Z,78.78
2018-02-09T08:05:26.193Z,76.72
2018-02-09T08:07:54.210Z,81.47
2018-02-09T08:10:22.209Z,78.50
2018-02-09T08:12:50.104Z,79.10
2018-02-09T08:15:18.175Z,83.18
2018-02-09T08:17:46.107Z,89.40
2018-02-09T08:20:14.102Z,78.62
2018-02-09T08:22:42.328Z,82.15
2018-02-09T08:25:10.478Z,86.28
2018-02-09T08:27:38.533Z,85.65
2018-02-09T08:30:07.255Z,82.95
2018-02-09T08:32:36.026Z,84.95
2018-02-09T08:35:04.912Z,79.43
2018-02-09T08:37:33.654Z,81.03
2018-02-09T08:40:01.604Z,97.32
2018-02-09T08:42:29.598Z,83.32
2018-02-09T08:44:57.832Z,86.00
2018-02-09T08:47:26.085Z,93.70
2018-02-09T08:49:54.980Z,94.28
2018-02-09T08:52:22.946Z,95.12
2018-02-09T08:54:51.016Z,95.18
2018-02-09T08:57:19.748Z,92.88
2018-02-09T08:59:47.771Z,88.32
2018-02-09T09:02:16.486Z,85.47
2018-02-09T09:04:45.228Z,80.12
2018-02-09T09:07:13.203Z,88.78
2018-02-09T09:09:42.088Z,86.12
2018-02-09T09:12:10.235Z,80.87
2018-02-09T09:14:38.234Z,86.72
2018-02-09T09:17:06.181Z,90.32
2018-02-09T09:19:34.194Z,86.47
2018-02-09T09:22:02.145Z,85.22
2018-02-09T09:24:30.793Z,80.22
2018-02-09T09:26:58.919Z,82.20
2018-02-09T09:29:26.914Z,87.82
2018-02-09T09:31:55.038Z,76.35
2018-02-09T09:34:23.795Z,81.80
2018-02-09T09:36:51.791Z,82.97
2018-02-09T09:39:20.656Z,80.38
2018-02-09T09:41:48.689Z,84.60
2018-02-09T09:44:17.108Z,86.37
2018-02-09T09:46:45.453Z,86.12
2018-02-09T09:49:14.459Z,85.87
2018-02-09T09:51:43.492Z,82.25
2018-02-09T09:54:12.219Z,80.95
2018-02-09T09:56:40.724Z,83.12
2018-02-09T09:59:09.086Z,79.53
2018-02-09T10:01:36.982Z,79.75
2018-02-09T10:04:05.052Z,92.50
2018-02-09T10:06:34.662Z,89.07
2018-02-09T10:09:03.033Z,85.05
2018-02-09T10:11:31.197Z,86.25
2018-02-09T10:13:59.361Z,75.00
2018-02-09T10:16:27.461Z,79.25
2018-02-09T10:18:55.678Z,76.97
2018-02-09T10:21:23.661Z,79.62
2018-02-09T10:23:51.702Z,78.72
2018-02-09T10:26:20.527Z,81.82
2018-02-09T10:28:49.735Z,78.25
2018-02-09T10:31:17.761Z,81.37
2018-02-09T10:33:46.493Z,83.35
2018-02-09T10:36:14.623Z,80.57
2018-02-09T10:38:42.757Z,80.12
2018-02-09T10:41:11.526Z,87.05
2018-02-09T10:43:39.706Z,85.18
2018-02-09T10:46:07.868Z,82.47
2018-02-09T10:48:35.960Z,85.32
2018-02-09T10:51:04.595Z,82.80
2018-02-09T10:53:33.742Z,92.22
2018-02-09T10:56:02.683Z,89.40
2018-02-09T10:58:30.731Z,88.65
2018-02-09T11:00:59.645Z,80.50
2018-02-09T11:03:27.612Z,78.18
2018-02-09T11:05:56.123Z,80.90
2018-02-09T11:08:24.109Z,81.97
2018-02-09T11:10:52.934Z,75.97
2018-02-09T11:13:25.657Z,79.70
2018-02-09T11:15:53.858Z,72.95
2018-02-09T11:18:21.977Z,83.70
2018-02-09T11:20:49.950Z,76.75
2018-02-09T11:23:18.684Z,79.85
2018-02-09T11:25:46.783Z,78.03
2018-02-09T11:28:15.618Z,81.87
2018-02-09T11:30:43.714Z,81.93
2018-02-09T11:33:11.759Z,80.20
2018-02-09T11:35:39.829Z,74.18
2018-02-09T11:38:07.778Z,76.57
2018-02-09T11:40:36.010Z,78.93
2018-02-09T11:43:05.046Z,83.35
2018-02-09T11:45:33.968Z,74.12
2018-02-09T11:48:02.765Z,77.82
2018-02-09T11:50:30.920Z,86.50
2018-02-09T11:52:59.068Z,71.68
2018-02-09T11:55:29.555Z,73.05
2018-02-09T11:57:57.946Z,76.65
2018-02-09T12:00:26.711Z,73.18
2018-02-09T12:02:54.957Z,73.37
2018-02-09T12:05:23.340Z,78.32
2018-02-09T12:07:51.614Z,74.25
2018-02-09T12:10:19.967Z,81.80
2018-02-09T12:12:48.069Z,76.37
2018-02-09T12:15:16.106Z,93.00
2018-02-09T12:17:45.373Z,74.70
2018-02-09T12:20:14.072Z,67.72
2018-02-09T12:22:41.958Z,76.95
2018-02-09T12:25:09.954Z,73.55
2018-02-09T12:27:38.224Z,68.10
2018-02-09T12:30:06.865Z,72.12
2018-02-09T12:32:36.061Z,69.15
2018-02-09T12:35:04.002Z,78.22
2018-02-09T12:37:32.203Z,80.40
2018-02-09T12:40:00.896Z,74.90
2018-02-09T12:42:28.985Z,81.80
2018-02-09T12:44:57.761Z,84.57
2018-02-09T12:47:27.927Z,81.60
2018-02-09T12:49:55.960Z,86.43
2018-02-09T12:52:23.961Z,74.35
2018-02-09T12:54:51.987Z,74.22
2018-02-09T12:58:49.418Z,89.72
2018-02-09T13:01:17.500Z,90.40
2018-02-09T13:03:46.279Z,87.93
2018-02-09T13:06:14.655Z,84.72
2018-02-09T13:08:42.649Z,81.35
2018-02-09T13:11:10.669Z,77.10
2018-02-09T13:13:38.614Z,91.10
2018-02-09T13:16:06.639Z,97.60
2018-02-09T13:18:44.686Z,82.75
2018-02-09T13:21:12.710Z,89.80
2018-02-09T13:24:43.353Z,85.07
2018-02-09T13:27:11.706Z,84.65
2018-02-09T13:29:39.757Z,86.47
2018-02-09T13:32:07.969Z,81.53
2018-02-09T13:34:36.003Z,75.93
2018-02-09T13:37:38.500Z,73.82
2018-02-09T13:40:06.456Z,83.90
2018-02-09T13:42:34.542Z,84.10
2018-02-09T13:45:02.433Z,79.43
2018-02-09T13:47:31.457Z,90.90
2018-02-09T13:49:59.509Z,79.37
2018-02-09T13:52:27.697Z,81.12
2018-02-09T13:54:55.693Z,84.78
2018-02-09T13:57:23.726Z,85.05
2018-02-09T13:59:52.044Z,93.40
2018-02-09T14:02:20.062Z,86.72
2018-02-09T14:04:48.039Z,72.82
2018-02-09T14:07:16.426Z,81.95
2018-02-09T14:09:44.493Z,88.18
2018-02-09T14:12:13.374Z,87.43
2018-02-09T14:14:41.763Z,82.45
2018-02-09T14:17:10.615Z,88.03
2018-02-09T14:19:38.669Z,81.10
2018-02-09T14:22:06.703Z,88.50
2018-02-09T14:24:34.688Z,87.28
2018-02-09T14:27:02.976Z,86.45
2018-02-09T14:29:32.040Z,100.20
2018-02-09T14:31:59.979Z,100.53
2018-02-09T14:34:29.138Z,91.32
2018-02-09T14:36:57.259Z,90.50
2018-02-09T14:39:25.272Z,78.32
2018-02-09T14:41:53.394Z,93.97
2018-02-09T14:44:21.619Z,81.53
2018-02-09T14:46:50.585Z,95.15
2018-02-09T14:49:18.579Z,96.68
2018-02-09T14:51:46.889Z,97.30
2018-02-09T14:54:15.210Z,98.80
2018-02-09T14:56:43.371Z,101.28
2018-02-09T14:59:12.134Z,99.95
2018-02-09T15:01:40.139Z,102.70
2018-02-09T15:04:09.101Z,99.30
2018-02-09T15:06:37.066Z,89.25
2018-02-09T15:09:05.491Z,98.07
2018-02-09T15:11:33.848Z,92.35
2018-02-09T15:14:01.884Z,97.88
2018-02-09T15:16:30.045Z,100.05
2018-02-09T15:18:58.726Z,100.18
2018-02-09T15:21:27.147Z,97.88
2018-02-09T15:23:55.164Z,98.12
2018-02-09T15:26:23.125Z,102.72
2018-02-09T15:28:51.402Z,103.00
2018-02-09T15:31:19.390Z,97.65
2018-02-09T15:33:47.441Z,102.47
2018-02-09T15:36:15.532Z,104.00
2018-02-09T15:38:43.737Z,97.07
2018-02-09T15:41:12.706Z,99.00
2018-02-09T15:43:40.888Z,108.40
2018-02-09T15:46:09.565Z,97.12
2018-02-09T15:48:37.616Z,109.25
2018-02-09T15:51:06.062Z,91.18
2018-02-09T15:53:34.022Z,95.43
2018-02-09T15:56:02.018Z,99.22
2018-02-09T15:58:30.340Z,101.93
2018-02-09T16:00:58.992Z,97.07
2018-02-09T16:03:26.981Z,92.68
2018-02-09T16:05:55.021Z,88.75
2018-02-09T16:08:22.940Z,85.90
2018-02-09T16:10:52.176Z,93.82
2018-02-09T16:13:20.065Z,89.97
2018-02-09T16:15:48.238Z,90.07
2018-02-09T16:18:16.189Z,89.95
2018-02-09T16:20:44.340Z,90.55
2018-02-09T16:23:13.190Z,85.70
2018-02-09T16:25:41.389Z,79.12
2018-02-09T16:28:10.160Z,82.62
2018-02-09T16:30:38.231Z,88.57
2018-02-09T16:33:07.209Z,81.90
2018-02-09T16:35:35.552Z,84.10
2018-02-09T16:38:03.990Z,79.07
2018-02-09T16:40:32.323Z,85.10
2018-02-09T16:43:00.664Z,85.97
2018-02-09T16:45:28.672Z,82.62
2018-02-09T16:47:56.850Z,82.37
2018-02-09T16:50:25.347Z,81.37
2018-02-09T16:52:53.563Z,80.47
2018-02-09T16:55:22.826Z,80.30
2018-02-09T16:57:51.629Z,87.40
2018-02-09T17:00:19.662Z,81.72
2018-02-09T17:02:48.865Z,84.75
2018-02-09T17:05:17.092Z,81.57
2018-02-09T17:07:46.578Z,88.72
2018-02-09T17:10:15.570Z,88.22
2018-02-09T17:12:44.145Z,93.57
2018-02-09T17:15:12.224Z,89.43
2018-02-09T17:17:40.657Z,82.28
2018-02-09T17:20:08.934Z,66.28
2018-02-09T17:22:40.190Z,93.03
2018-02-09T17:25:08.340Z,85.85
2018-02-09T17:27:37.224Z,83.80
2018-02-09T17:30:05.380Z,87.80
2018-02-09T17:32:33.783Z,87.80
2018-02-09T17:35:02.192Z,84.15
2018-02-09T17:37:30.283Z,86.68
2018-02-09T17:39:59.200Z,91.37
2018-02-09T17:42:27.629Z,79.65
2018-02-09T17:44:56.098Z,74.47
2018-02-09T17:47:24.461Z,81.82
2018-02-09T17:49:52.841Z,81.25
2018-02-09T17:52:21.090Z,83.97
2018-02-09T17:54:49.570Z,83.68
2018-02-09T17:57:17.718Z,89.97
2018-02-09T17:59:47.830Z,82.22
2018-02-09T18:02:16.642Z,80.62
2018-02-09T18:04:45.358Z,87.85
2018-02-09T18:07:13.716Z,86.50
2018-02-09T18:09:43.688Z,90.78
2018-02-09T18:12:12.580Z,91.30
2018-02-09T18:14:41.614Z,84.93
2018-02-09T18:17:09.885Z,81.95
2018-02-09T18:19:38.120Z,94.72
2018-02-09T18:22:06.237Z,93.18
2018-02-09T18:24:34.792Z,81.85
2018-02-09T18:27:03.981Z,92.85
2018-02-09T18:29:34.263Z,74.68
2018-02-09T18:32:02.477Z,82.40
2018-02-09T18:34:31.603Z,90.87
2018-02-09T18:37:00.363Z,92.47
2018-02-09T18:39:29.535Z,94.37
2018-02-09T18:41:59.248Z,93.30
2018-02-09T18:44:28.116Z,90.30
2018-02-09T18:46:57.569Z,88.72
2018-02-09T18:49:27.051Z,91.00
2018-02-09T18:51:55.492Z,93.18
2018-02-09T18:54:24.997Z,84.57
2018-02-09T18:56:54.543Z,90.55
2018-02-09T18:59:22.763Z,87.60
2018-02-09T19:01:52.703Z,90.32
2018-02-09T19:04:22.151Z,86.32
2018-02-09T19:06:52.580Z,84.62
2018-02-09T19:09:23.427Z,88.87
2018-02-09T19:11:52.300Z,81.40
2018-02-09T19:14:27.824Z,85.75
2018-02-09T19:16:56.841Z,80.32
2018-02-09T19:19:25.309Z,77.68
2018-02-09T19:21:56.347Z,85.07
2018-02-09T19:24:25.484Z,82.97
2018-02-09T19:26:53.897Z,80.35
2018-02-09T19:29:23.444Z,82.60
2018-02-09T19:31:53.620Z,84.47
2018-02-09T19:34:23.266Z,84.93
2018-02-09T19:36:52.864Z,77.20
2018-02-09T19:39:23.819Z,87.50
2018-02-09T19:41:54.760Z,88.15
2018-02-09T19:44:24.344Z,88.05
2018-02-09T19:46:52.958Z,81.25
2018-02-09T19:51:57.678Z,86.47
2018-02-09T19:54:28.410Z,82.50
2018-02-09T19:56:56.884Z,83.30
2018-02-09T19:59:26.691Z,91.37
2018-02-09T20:01:55.555Z,78.12
2018-02-09T20:04:26.553Z,84.53
2018-02-09T20:06:56.658Z,83.57
2018-02-09T20:09:26.760Z,82.25
2018-02-09T20:11:56.069Z,87.40
2018-02-09T20:14:25.738Z,92.10
2018-02-09T20:16:54.779Z,78.32
2018-02-09T20:19:23.684Z,77.90
2018-02-09T20:21:53.021Z,83.12
2018-02-09T20:24:23.973Z,79.97
2018-02-09T20:26:52.516Z,80.28
2018-02-09T20:29:23.587Z,80.40
2018-02-09T20:31:52.065Z,83.80
2018-02-09T20:34:20.365Z,76.90
2018-02-09T20:36:48.834Z,79.47
2018-02-09T20:39:19.624Z,76.87
2018-02-09T20:42:00.447Z,73.37
2018-02-09T20:44:29.029Z,77.05
2018-02-09T20:46:58.063Z,85.47
2018-02-09T20:49:46.766Z,73.03
2018-02-09T20:52:45.401Z,69.12
2018-02-09T20:55:20.786Z,66.12
2018-02-09T20:57:51.215Z,70.47
2018-02-09T21:02:54.157Z,73.30
2018-02-09T21:05:23.098Z,67.35
2018-02-09T21:07:52.667Z,71.05
2018-02-09T21:10:21.543Z,75.60
2018-02-09T21:12:50.462Z,66.85
2018-02-09T21:15:19.823Z,69.37
2018-02-09T21:17:49.180Z,67.90
2018-02-09T21:20:17.805Z,70.82
2018-02-09T21:22:46.489Z,64.75
2018-02-09T21:25:15.237Z,68.90
2018-02-09T21:27:53.347Z,69.60
2018-02-09T21:30:31.121Z,64.00
2018-02-09T21:33:33.225Z,64.10
2018-02-09T21:36:02.026Z,66.70
2018-02-09T21:38:30.484Z,59.50
2018-02-09T21:40:59.659Z,62.30
2018-02-09T21:43:31.349Z,67.72
2018-02-09T21:46:00.468Z,61.20
2018-02-09T21:48:28.770Z,55.78
2018-02-09T21:50:58.511Z,60.30
2018-02-09T21:53:28.801Z,67.18
2018-02-09T21:55:58.929Z,60.50
2018-02-09T21:58:27.478Z,61.30
2018-02-09T22:00:55.708Z,65.12
2018-02-09T22:03:23.806Z,62.75
2018-02-09T22:05:51.994Z,55.95
2018-02-09T22:08:20.124Z,62.45
2018-02-09T22:10:48.276Z,61.42
2018-02-09T22:13:16.912Z,58.80
2018-02-09T22:15:45.064Z,57.78
2018-02-09T22:18:14.766Z,58.83
2018-02-09T22:20:43.092Z,64.80
2018-02-09T22:23:12.223Z,58.90
2018-02-09T22:25:40.693Z,60.50
2018-02-09T22:28:09.307Z,64.78
2018-02-09T22:30:37.704Z,63.87
2018-02-09T22:33:07.434Z,64.68
2018-02-09T22:35:37.335Z,60.60
2018-02-09T22:38:06.526Z,64.97
2018-02-09T22:40:34.617Z,59.60
2018-02-09T22:43:03.273Z,64.47
2018-02-09T22:45:31.271Z,60.25
2018-02-09T22:48:00.054Z,62.85
2018-02-09T22:50:28.828Z,63.40
2018-02-09T22:52:57.324Z,64.47
2018-02-09T22:55:25.530Z,62.22
2018-02-09T22:57:53.588Z,68.57
2018-02-09T23:00:22.445Z,59.58
2018-02-09T23:02:51.519Z,65.28
2018-02-09T23:05:19.816Z,65.75
2018-02-09T23:07:47.774Z,69.82
2018-02-09T23:10:15.827Z,67.07
2018-02-09T23:12:43.996Z,61.90
2018-02-09T23:15:13.367Z,66.90
2018-02-09T23:17:41.398Z,65.20
2018-02-09T23:20:09.468Z,62.88
2018-02-09T23:22:37.667Z,72.30
2018-02-09T23:25:06.630Z,71.50
2018-02-09T23:27:34.938Z,70.10
2018-02-09T23:30:03.002Z,59.75
2018-02-09T23:32:31.101Z,69.55
2018-02-09T23:34:59.786Z,65.12
2018-02-09T23:37:27.890Z,69.95
2018-02-09T23:39:56.605Z,66.85
2018-02-09T23:42:24.814Z,65.50
2018-02-09T23:44:52.920Z,72.65
2018-02-09T23:47:21.274Z,65.03
2018-02-09T23:49:49.754Z,65.50
2018-02-09T23:52:18.004Z,68.97
2018-02-09T23:54:46.983Z,65.55
2018-02-09T23:57:16.323Z,66.32
2018-02-09T23:59:44.474Z,67.55
